Latest Weather Observations for Frederick Reef

IDQ60801

Issued at 9:35 pm EST Saturday 20 September 2014 (issued every 30 minutes, with the page automatically refreshed every 10 minutes)

About weather observations | Map of weather stations | Latest weather observations for QLD | Other Formats
Station Details ID: 200701 Name: FREDERICK REEF Lat: -20.94 Lon: 154.40 Height: 4.9 m
Data from the previous 72 hours. | See also: Recent months for locations in Queensland
Date/Time
EST
Temp
°C
App
Temp
°C
Dew
Point
Rel
Hum
%
Delta-T
°C
Wind Press
QNH
hPa
Press
MSL
hPa
Rain
since 9 am
mm
Dir
 
Spd
km/h
Gust
km/h
Spd
kts
Gust
kts
20/09:30pm 22.0 - - - - ESE 39 46 21 25 1019.8 - -
20/09:00pm 22.0 - - - - ESE 39 44 21 24 1019.8 - -
20/08:30pm 22.0 - - - - ESE 37 44 20 24 1019.5 - -
20/08:00pm 22.1 - - - - ESE 37 44 20 24 1019.1 - -
20/07:30pm 22.1 - - - - ESE 33 39 18 21 1019.0 - -
20/07:00pm 22.0 - - - - ESE 37 43 20 23 1018.4 - -
20/06:30pm 22.2 - - - - ESE 33 37 18 20 1018.1 - -
20/06:00pm 22.1 - - - - ESE 33 39 18 21 1017.7 - -
20/05:30pm 22.1 - - - - ESE 30 35 16 19 1017.4 - -
20/05:00pm 22.1 - - - - ESE 30 35 16 19 1017.0 - -
20/04:30pm 22.1 - - - - SE 32 35 17 19 1016.8 - -
20/04:00pm 22.1 - - - - SE 32 35 17 19 1016.5 - -
20/03:30pm 22.1 - - - - ESE 32 35 17 19 1016.4 - -
20/03:00pm 22.0 - - - - SE 32 33 17 18 1016.3 1016.3 -
20/02:30pm 22.1 - - - - ESE 30 33 16 18 1016.3 - -
20/02:00pm 22.1 - - - - ESE 32 33 17 18 1016.5 - -
20/01:30pm 22.4 - - - - ESE 30 35 16 19 1016.6 - -
20/01:00pm 22.1 - - - - ESE 32 35 17 19 1017.0 - -
20/12:30pm 22.1 - - - - ESE 32 35 17 19 1017.3 - -
20/12:00pm 22.3 - - - - ESE 32 37 17 20 1017.5 1017.5 -
20/11:30am 22.0 - - - - ESE 32 35 17 19 1017.7 - -
20/11:00am 22.0 - - - - ESE 33 37 18 20 1018.0 - -
20/10:30am 22.2 - - - - ESE 33 37 18 20 1018.3 - -
20/10:00am 22.2 - - - - ESE 35 41 19 22 1018.7 - -
20/09:30am 22.2 - - - - ESE 35 37 19 20 1018.8 - -
20/09:00am 22.0 - - - - ESE 32 35 17 19 1018.8 1018.8 -
20/08:30am 22.4 - - - - ESE 33 37 18 20 1018.5 - -
20/08:00am 22.5 - - - - ESE 32 35 17 19 1018.3 - -
20/07:30am 22.3 - - - - ESE 32 35 17 19 1018.0 - -
20/07:00am 22.0 - - - - ESE 32 35 17 19 1017.7 - -
20/06:30am 22.1 - - - - SE 32 35 17 19 1017.4 - -
20/06:00am 22.1 - - - - SE 32 35 17 19 1017.2 1017.2 -
20/05:30am 22.0 - - - - SE 30 33 16 18 1016.8 - -
20/05:04am 22.2 - - - - SE 28 32 15 17 1016.7 - -
20/05:00am 22.1 - - - - SE 2 6 1 3 1016.6 - -
20/04:30am 21.8 - - - - ESE 2 6 1 3 1016.4 - -
20/04:00am 21.8 - - - - SE 2 6 1 3 1016.2 - -
20/03:30am 22.1 - - - - SE 2 6 1 3 1016.0 - -
20/03:00am 22.0 - - - - CALM 0 6 0 3 1016.1 - -
20/02:30am 22.1 - - - - CALM 0 4 0 2 1016.3 - -
20/02:00am 22.1 - - - - CALM 0 4 0 2 1016.5 - -
20/01:30am 22.3 - - - - ESE 2 6 1 3 1016.9 - -
20/01:00am 22.4 - - - - CALM 0 6 0 3 1017.2 - -
20/12:30am 22.5 - - - - CALM 0 4 0 2 1017.8 - -
20/12:00am 22.6 - - - - ESE 2 6 1 3 1018.5 - -
 
Date/Time
EST
Temp
°C
App
Temp
°C
Dew
Point
Rel
Hum
%
Delta-T
°C
Wind Press
QNH
hPa
Press
MSL
hPa
Rain
since 9 am
mm
Dir
 
Spd
km/h
Gust
km/h
Spd
kts
Gust
kts
19/11:30pm 22.3 - - - - CALM 0 4 0 2 1018.8 - -
19/11:00pm 22.2 - - - - SE 2 6 1 3 1019.0 - -
19/10:30pm 22.4 - - - - CALM 0 4 0 2 1019.0 - -
19/10:00pm 22.5 - - - - CALM 0 4 0 2 1019.1 - -
19/09:30pm 22.5 - - - - ESE 2 6 1 3 1019.1 - -
19/09:00pm 22.6 - - - - ESE 2 6 1 3 1018.7 - -
19/08:30pm 22.3 - - - - ESE 2 6 1 3 1018.6 - -
19/08:00pm 22.7 - - - - E 2 6 1 3 1018.5 - -
19/07:30pm 22.8 - - - - ESE 2 4 1 2 1018.2 - -
19/07:00pm 22.6 - - - - ESE 2 6 1 3 1017.8 - -
19/06:30pm 22.5 - - - - ESE 2 6 1 3 1017.5 - -
19/06:00pm 22.5 - - - - ESE 4 37 2 20 1017.2 - -
19/05:30pm 22.5 - - - - SE 32 35 17 19 1016.7 - -
19/05:00pm 22.5 - - - - SE 30 33 16 18 1016.6 - -
19/04:30pm 22.6 - - - - SE 28 32 15 17 1016.3 - -
19/04:00pm 22.5 - - - - SE 28 32 15 17 1016.2 - -
19/03:30pm 22.8 - - - - SE 30 33 16 18 1016.0 - -
19/03:00pm 22.9 - - - - SE 28 30 15 16 1015.8 1015.8 -
19/02:30pm 22.5 - - - - SE 28 32 15 17 1015.9 - -
19/02:00pm 22.7 - - - - SE 28 30 15 16 1016.1 - -
19/01:30pm 22.7 - - - - SE 26 30 14 16 1016.3 - -
19/01:00pm 22.5 - - - - SE 28 32 15 17 1016.8 - -
19/12:30pm 22.6 - - - - SE 30 32 16 17 1017.2 - -
19/12:00pm 22.7 - - - - SE 28 32 15 17 1017.6 1017.6 -
19/11:30am 22.5 - - - - SE 28 32 15 17 1018.0 - -
19/11:00am 22.8 - - - - SE 28 30 15 16 1018.5 - -
19/10:30am 22.6 - - - - SE 28 30 15 16 1018.9 - -
19/10:00am 22.5 - - - - SE 24 26 13 14 1019.0 - -
19/09:30am 22.6 - - - - SE 24 28 13 15 1019.1 - -
19/09:00am 22.6 - - - - SSE 26 28 14 15 1018.9 1018.9 -
19/08:30am 22.8 - - - - SE 24 26 13 14 1019.0 - -
19/08:00am 22.6 - - - - SSE 24 28 13 15 1018.9 - -
19/07:30am 22.4 - - - - SSE 24 28 13 15 1018.5 - -
19/07:00am 22.4 - - - - SSE 22 26 12 14 1018.5 - -
19/06:30am 22.5 - - - - SE 22 26 12 14 1018.3 - -
19/06:00am 22.5 - - - - SE 20 24 11 13 1018.1 1018.1 -
19/05:30am 22.3 - - - - SE 20 24 11 13 1017.7 - -
19/05:00am 22.2 - - - - CALM 0 6 0 3 1017.4 - -
19/04:30am 22.3 - - - - CALM 0 4 0 2 1017.2 - -
19/04:00am 22.2 - - - - CALM 0 6 0 3 1017.2 - -
19/03:30am 22.4 - - - - CALM 0 4 0 2 1017.1 - -
19/03:00am 22.3 - - - - CALM 0 2 0 1 1017.3 - -
19/02:30am 22.6 - - - - CALM 0 4 0 2 1017.3 - -
19/02:00am 22.5 - - - - CALM 0 6 0 3 1017.3 - -
19/01:30am 22.5 - - - - CALM 0 4 0 2 1017.5 - -
19/01:00am 22.6 - - - - CALM 0 2 0 1 1017.7 - -
19/12:30am 22.5 - - - - CALM 0 4 0 2 1017.7 - -
19/12:00am 22.5 - - - - CALM 0 4 0 2 1018.0 - -
 
Date/Time
EST
Temp
°C
App
Temp
°C
Dew
Point
Rel
Hum
%
Delta-T
°C
Wind Press
QNH
hPa
Press
MSL
hPa
Rain
since 9 am
mm
Dir
 
Spd
km/h
Gust
km/h
Spd
kts
Gust
kts
18/11:30pm 22.6 - - - - CALM 0 4 0 2 1018.2 - -
18/11:00pm 22.7 - - - - CALM 0 6 0 3 1018.4 - -
18/10:30pm 22.8 - - - - CALM 0 6 0 3 1018.4 - -
18/10:00pm 22.9 - - - - CALM 0 6 0 3 1018.7 - -
18/09:30pm 22.7 - - - - CALM 0 6 0 3 1018.6 - -
18/09:00pm 22.9 - - - - CALM 0 6 0 3 1018.5 - -
18/08:30pm 22.7 - - - - CALM 0 6 0 3 1018.3 - -
18/08:00pm 22.8 - - - - SSE 2 6 1 3 1018.1 - -
18/07:30pm 22.9 - - - - CALM 0 6 0 3 1017.8 - -
18/07:00pm 22.8 - - - - S 2 6 1 3 1017.3 - -
18/06:30pm 23.1 - - - - S 2 6 1 3 1016.9 - -
18/06:00pm 23.1 - - - - S 2 6 1 3 1016.6 - -
18/05:30pm 23.2 - - - - S 22 24 12 13 1016.5 - -
18/05:00pm 23.1 - - - - S 22 28 12 15 1016.2 - -
18/04:30pm 23.3 - - - - SSW 22 30 12 16 1016.0 - -
18/04:00pm 23.2 - - - - SSW 20 26 11 14 1015.7 - -
18/03:30pm 23.2 - - - - SSW 17 20 9 11 1015.5 - -
18/03:00pm 23.4 - - - - SSW 6 19 3 10 1015.6 1015.6 -
18/02:30pm 23.2 - - - - SSW 2 7 1 4 1015.8 - -
18/02:00pm 23.4 - - - - CALM 0 6 0 3 1016.0 - -
18/01:30pm 23.2 - - - - SSW 2 6 1 3 1016.2 - -
18/01:00pm 22.8 - - - - CALM 0 6 0 3 1016.4 - -
18/12:30pm 23.2 - - - - SW 2 7 1 4 1016.9 - -
18/12:00pm 23.0 - - - - SW 2 6 1 3 1017.4 1017.4 -
18/11:30am 22.9 - - - - CALM 0 6 0 3 1017.9 - -
18/11:00am 23.2 - - - - CALM 0 6 0 3 1018.2 - -
18/10:30am 23.0 - - - - WSW 7 9 4 5 1018.5 - -
18/10:00am 23.4 - - - - W 6 9 3 5 1018.8 - -
18/09:30am 24.9 - - - - NNW 7 9 4 5 1018.4 - -
18/09:00am 23.9 - - - - N 11 13 6 7 1018.4 1018.4 -
18/08:30am 23.7 - - - - N 13 17 7 9 1018.2 - -
18/07:30am 23.1 - - - - NNE 28 32 15 17 1017.0 - -
18/07:00am 23.2 - - - - NNE 26 28 14 15 1017.0 - -
18/06:30am 22.8 - - - - NNE 26 30 14 16 1016.6 - -
18/06:00am 22.4 - - - - NNE 24 28 13 15 1016.2 1016.2 -
18/05:30am 22.2 - - - - NNE 26 30 14 16 1015.9 - -
18/05:00am 22.3 - - - - NNE 26 30 14 16 1015.6 - -
18/04:30am 22.3 - - - - NNE 28 32 15 17 1015.4 - -
18/04:00am 22.4 - - - - NNE 28 30 15 16 1015.3 - -
18/03:35am 22.3 - - - - NNE 28 30 15 16 1015.1 - -
18/03:30am 22.2 - - - - NNE 2 6 1 3 1015.1 - -
18/03:00am 22.4 - - - - NNE 2 7 1 4 1015.1 1015.1 -
18/02:30am 22.5 - - - - NNE 2 6 1 3 1015.3 - -
18/02:00am 22.3 - - - - CALM 0 4 0 2 1015.9 - -
18/01:30am 22.3 - - - - NE 2 6 1 3 1016.2 - -
18/01:00am 22.4 - - - - NE 2 6 1 3 1016.4 - -
18/12:30am 22.4 - - - - CALM 0 2 0 1 1016.7 - -
18/12:00am 22.4 - - - - NE 2 7 1 4 1017.0 1017.0 -
 
Date/Time
EST
Temp
°C
App
Temp
°C
Dew
Point
Rel
Hum
%
Delta-T
°C
Wind Press
QNH
hPa
Press
MSL
hPa
Rain
since 9 am
mm
Dir
 
Spd
km/h
Gust
km/h
Spd
kts
Gust
kts
17/11:30pm 22.4 - - - - CALM 0 4 0 2 1017.2 - -
17/11:00pm 22.4 - - - - CALM 0 9 0 5 1017.5 - -
17/10:30pm 22.5 - - - - CALM 0 4 0 2 1017.5 - -
17/10:00pm 22.5 - - - - CALM 0 4 0 2 1017.5 - -

Other Formats:

Comma delimited format used in spreadsheet applications
http://www.bom.gov.au/fwo/IDQ60801/IDQ60801.94393.axf

JavaScript Object Notation format (JSON) in row-major order
http://www.bom.gov.au/fwo/IDQ60801/IDQ60801.94393.json